createdAt,value
2023-02-18T00:01:07.064Z,2.30
2023-02-18T00:04:30.659Z,1.80
2023-02-18T00:07:58.263Z,2.40
2023-02-18T00:11:22.073Z,2.70
2023-02-18T00:14:54.463Z,2.00
2023-02-18T00:18:22.714Z,2.20
2023-02-18T00:21:50.847Z,1.70
2023-02-18T00:25:13.930Z,2.00
2023-02-18T00:28:55.116Z,2.10
2023-02-18T00:32:17.938Z,2.90
2023-02-18T00:35:41.496Z,3.10
2023-02-18T00:39:14.526Z,2.80
2023-02-18T00:42:37.708Z,1.90
2023-02-18T00:46:02.538Z,2.10
2023-02-18T00:49:25.782Z,1.70
2023-02-18T00:52:50.721Z,1.90
2023-02-18T00:56:15.046Z,2.10
2023-02-18T00:59:38.094Z,2.20
2023-02-18T01:03:02.378Z,2.00
2023-02-18T01:06:40.544Z,2.00
2023-02-18T01:10:04.287Z,2.20
2023-02-18T01:13:28.367Z,1.10
2023-02-18T01:16:57.215Z,1.30
2023-02-18T01:20:20.342Z,1.70
2023-02-18T01:23:43.478Z,1.80
2023-02-18T01:27:06.499Z,2.10
2023-02-18T01:30:29.369Z,1.60
2023-02-18T01:33:55.944Z,1.60
2023-02-18T01:37:20.486Z,1.70
2023-02-18T01:40:35.440Z,1.90
2023-02-18T01:44:16.219Z,1.90
2023-02-18T01:47:36.427Z,1.50
2023-02-18T01:51:17.712Z,2.00
2023-02-18T01:55:09.997Z,1.90
2023-02-18T01:58:33.343Z,1.50
2023-02-18T02:02:02.608Z,2.00
2023-02-18T02:05:30.956Z,1.40
2023-02-18T02:08:54.657Z,2.10
2023-02-18T02:12:14.469Z,1.50
2023-02-18T02:15:35.917Z,1.50
2023-02-18T02:18:41.552Z,1.60
2023-02-18T02:22:09.308Z,2.30
2023-02-18T02:25:26.681Z,1.40
2023-02-18T02:29:07.373Z,1.60
2023-02-18T02:32:28.908Z,1.60
2023-02-18T02:35:45.024Z,2.40
2023-02-18T02:39:12.593Z,1.60
2023-02-18T02:42:36.107Z,2.10
2023-02-18T02:46:04.178Z,2.10
2023-02-18T02:49:20.112Z,2.10
2023-02-18T02:52:33.974Z,2.80
2023-02-18T02:55:36.821Z,2.50
2023-02-18T02:58:39.691Z,2.80
2023-02-18T03:02:01.915Z,2.50
2023-02-18T03:05:25.828Z,3.20
2023-02-18T03:11:58.741Z,3.30
2023-02-18T03:15:16.999Z,3.10
2023-02-18T03:18:41.443Z,2.40
2023-02-18T03:21:51.838Z,3.10
2023-02-18T03:24:57.590Z,2.80
2023-02-18T03:28:05.635Z,2.10
2023-02-18T03:31:17.393Z,1.50
2023-02-18T03:34:29.055Z,3.30
2023-02-18T03:37:37.248Z,2.60
2023-02-18T03:40:40.180Z,2.90
2023-02-18T03:43:51.184Z,3.10
2023-02-18T03:46:54.676Z,3.20
2023-02-18T03:49:57.523Z,3.30
2023-02-18T03:53:00.392Z,2.00
2023-02-18T03:56:03.806Z,2.90
2023-02-18T03:59:07.087Z,2.80
2023-02-18T04:02:10.106Z,3.00
2023-02-18T04:05:13.097Z,2.10
2023-02-18T04:08:16.009Z,2.10
2023-02-18T04:11:18.928Z,2.70
2023-02-18T04:14:21.861Z,2.50
2023-02-18T04:17:24.643Z,2.80
2023-02-18T04:20:27.452Z,3.00
2023-02-18T04:23:30.407Z,2.70
2023-02-18T04:26:33.648Z,2.70
2023-02-18T04:29:36.624Z,2.10
2023-02-18T04:32:39.678Z,2.80
2023-02-18T04:35:42.546Z,1.60
2023-02-18T04:38:46.247Z,2.50
2023-02-18T04:41:49.197Z,2.10
2023-02-18T04:44:52.026Z,2.40
2023-02-18T04:47:55.294Z,2.40
2023-02-18T04:50:58.154Z,2.70
2023-02-18T04:54:01.010Z,1.80
2023-02-18T04:57:03.994Z,1.80
2023-02-18T05:00:09.238Z,1.70
2023-02-18T05:03:12.297Z,2.20
2023-02-18T05:06:15.417Z,2.00
2023-02-18T05:09:18.350Z,2.20
2023-02-18T05:12:21.294Z,2.10
2023-02-18T05:15:24.277Z,2.00
2023-02-18T05:18:27.135Z,2.50
2023-02-18T05:21:30.244Z,1.90
2023-02-18T05:24:33.115Z,2.10
2023-02-18T05:27:35.949Z,1.20
2023-02-18T05:30:39.066Z,2.40
2023-02-18T05:33:42.030Z,2.00
2023-02-18T05:36:45.132Z,1.90
2023-02-18T05:39:48.115Z,2.60
2023-02-18T05:42:51.336Z,2.30
2023-02-18T05:45:54.260Z,2.80
2023-02-18T05:48:57.328Z,1.90
2023-02-18T05:52:01.281Z,3.10
2023-02-18T05:55:04.500Z,1.70
2023-02-18T05:58:07.393Z,1.30
2023-02-18T06:01:10.412Z,3.10
2023-02-18T06:04:13.577Z,2.70
2023-02-18T06:07:16.610Z,2.30
2023-02-18T06:10:19.526Z,2.40
2023-02-18T06:13:22.444Z,2.60
2023-02-18T06:16:25.995Z,3.00
2023-02-18T06:19:28.891Z,1.20
2023-02-18T06:22:31.827Z,2.40
2023-02-18T06:25:34.959Z,2.90
2023-02-18T06:28:37.978Z,2.70
2023-02-18T06:31:41.064Z,2.90
2023-02-18T06:34:44.049Z,3.50
2023-02-18T06:37:47.918Z,1.80
2023-02-18T06:40:51.254Z,3.00
2023-02-18T06:43:54.147Z,2.90
2023-02-18T06:46:57.123Z,2.90
2023-02-18T06:50:00.142Z,3.30
2023-02-18T06:53:03.175Z,3.40
2023-02-18T06:56:06.587Z,2.80
2023-02-18T06:59:09.799Z,3.10
2023-02-18T07:02:16.044Z,2.80
2023-02-18T07:05:19.022Z,4.50
2023-02-18T07:08:22.253Z,4.20
2023-02-18T07:11:25.124Z,3.70
2023-02-18T07:14:28.600Z,2.50
2023-02-18T07:17:31.532Z,4.90
2023-02-18T07:20:34.393Z,5.00
2023-02-18T07:23:37.346Z,5.20
2023-02-18T07:26:40.221Z,5.50
2023-02-18T07:29:43.341Z,4.50
2023-02-18T07:32:46.478Z,5.50
2023-02-18T07:36:00.113Z,4.30
2023-02-18T07:39:03.017Z,5.40
2023-02-18T07:42:05.964Z,5.10
2023-02-18T07:45:09.432Z,5.60
2023-02-18T07:48:13.071Z,3.00
2023-02-18T07:51:16.003Z,4.60
2023-02-18T07:54:19.113Z,5.60
2023-02-18T07:57:22.139Z,4.80
2023-02-18T08:00:25.123Z,4.00
2023-02-18T08:03:30.517Z,5.40
2023-02-18T08:06:38.757Z,9.20
2023-02-18T08:09:41.849Z,6.50
2023-02-18T08:12:44.800Z,5.70
2023-02-18T08:15:49.152Z,5.90
2023-02-18T08:18:53.417Z,6.60
2023-02-18T08:21:56.370Z,7.40
2023-02-18T08:24:59.287Z,6.80
2023-02-18T08:28:02.194Z,6.60
2023-02-18T08:31:05.741Z,6.80
2023-02-18T08:34:09.539Z,7.20
2023-02-18T08:37:12.532Z,5.30
2023-02-18T08:40:15.627Z,4.90
2023-02-18T08:43:18.845Z,4.30
2023-02-18T08:46:33.214Z,3.70
2023-02-18T08:49:39.363Z,4.20
2023-02-18T08:52:42.271Z,4.80
2023-02-18T08:55:45.354Z,4.20
2023-02-18T08:58:48.271Z,3.70
2023-02-18T09:01:51.325Z,3.10
2023-02-18T09:04:54.281Z,2.60
2023-02-18T09:07:57.427Z,2.90
2023-02-18T09:11:04.526Z,3.40
2023-02-18T09:14:07.539Z,2.90
2023-02-18T09:17:10.324Z,3.50
2023-02-18T09:20:13.572Z,4.00
2023-02-18T09:23:16.897Z,4.10
2023-02-18T09:26:23.213Z,3.20
2023-02-18T09:29:26.357Z,3.40
2023-02-18T09:32:34.837Z,2.60
2023-02-18T09:35:46.113Z,3.10
2023-02-18T09:38:50.042Z,3.30
2023-02-18T09:42:05.701Z,4.00
2023-02-18T09:45:12.859Z,4.40
2023-02-18T09:48:15.761Z,3.80
2023-02-18T09:51:20.263Z,3.40
2023-02-18T09:54:23.620Z,2.50
2023-02-18T09:57:42.320Z,3.20
2023-02-18T10:00:58.725Z,3.70
2023-02-18T10:05:05.333Z,1.90
2023-02-18T10:08:22.874Z,2.50
2023-02-18T10:11:42.921Z,3.20
2023-02-18T10:14:57.361Z,2.40
2023-02-18T10:18:00.857Z,3.80
2023-02-18T10:21:15.250Z,2.70
2023-02-18T10:24:59.700Z,2.90
2023-02-18T10:28:03.664Z,2.50
2023-02-18T10:31:11.497Z,3.10
2023-02-18T10:34:23.976Z,3.30
2023-02-18T10:37:52.358Z,3.60
2023-02-18T10:41:15.562Z,4.20
2023-02-18T10:44:52.128Z,9.60
2023-02-18T10:48:36.153Z,15.80
2023-02-18T10:52:02.478Z,15.30
2023-02-18T10:56:17.534Z,14.60
2023-02-18T10:59:54.212Z,9.30
2023-02-18T11:03:51.861Z,8.20
2023-02-18T11:11:10.624Z,7.50
2023-02-18T11:14:57.281Z,4.70
2023-02-18T11:18:36.414Z,4.70
2023-02-18T11:21:39.422Z,4.70
2023-02-18T11:24:48.381Z,3.90
2023-02-18T11:27:55.547Z,3.60
2023-02-18T11:31:01.701Z,4.00
2023-02-18T11:34:05.168Z,4.10
2023-02-18T11:37:17.847Z,3.20
2023-02-18T11:40:22.104Z,4.90
2023-02-18T11:43:29.722Z,3.20
2023-02-18T11:46:32.772Z,4.70
2023-02-18T11:49:36.129Z,5.60
2023-02-18T11:52:45.165Z,3.50
2023-02-18T11:55:56.445Z,4.30
2023-02-18T11:59:00.798Z,2.50
2023-02-18T12:02:09.717Z,2.90
2023-02-18T12:05:22.232Z,2.90
2023-02-18T12:08:30.758Z,2.80
2023-02-18T12:11:42.503Z,2.50
2023-02-18T12:14:45.758Z,3.30
2023-02-18T12:17:58.095Z,3.10
2023-02-18T12:21:35.734Z,3.00
2023-02-18T12:25:03.682Z,4.90
2023-02-18T12:28:28.693Z,5.00
2023-02-18T12:32:07.146Z,5.10
2023-02-18T12:35:10.459Z,4.80
2023-02-18T12:38:36.008Z,4.70
2023-02-18T12:42:17.722Z,3.70
2023-02-18T12:45:59.475Z,3.80
2023-02-18T12:52:46.284Z,5.10
2023-02-18T12:56:09.711Z,6.00
2023-02-18T12:59:43.974Z,5.50
2023-02-18T13:03:05.303Z,5.70
2023-02-18T13:06:20.246Z,7.90
2023-02-18T13:09:39.732Z,6.40
2023-02-18T13:12:47.725Z,5.00
2023-02-18T13:15:57.064Z,5.60
2023-02-18T13:19:07.870Z,5.40
2023-02-18T13:22:15.185Z,6.40
2023-02-18T13:25:19.676Z,5.60
2023-02-18T13:28:35.087Z,3.50
2023-02-18T13:32:10.880Z,4.90
2023-02-18T13:38:51.987Z,6.10
2023-02-18T13:42:12.937Z,5.40
2023-02-18T13:45:27.099Z,8.00
2023-02-18T13:48:31.076Z,3.10
2023-02-18T13:51:47.925Z,6.80
2023-02-18T13:54:52.133Z,5.10
2023-02-18T13:57:56.069Z,4.80
2023-02-18T14:01:34.551Z,2.50
2023-02-18T14:04:50.980Z,3.30
2023-02-18T14:08:14.228Z,2.20
2023-02-18T14:11:17.226Z,3.50
2023-02-18T14:14:26.426Z,2.60
2023-02-18T14:17:34.316Z,2.30
2023-02-18T14:20:37.260Z,3.40
2023-02-18T14:23:43.664Z,2.90
2023-02-18T14:26:48.834Z,3.20
2023-02-18T14:29:53.112Z,2.60
2023-02-18T14:32:59.068Z,2.10
2023-02-18T14:36:10.799Z,3.10
2023-02-18T14:39:19.765Z,3.10
2023-02-18T14:42:37.707Z,2.70
2023-02-18T14:49:22.932Z,3.00
2023-02-18T14:52:45.494Z,1.70
2023-02-18T14:55:58.462Z,1.70
2023-02-18T14:59:35.391Z,1.80
2023-02-18T15:02:40.798Z,2.40
2023-02-18T15:05:45.562Z,2.20
2023-02-18T15:08:48.463Z,3.00
2023-02-18T15:12:04.827Z,1.60
2023-02-18T15:15:08.257Z,3.30
2023-02-18T15:18:43.477Z,2.10
2023-02-18T15:21:49.164Z,3.80
2023-02-18T15:24:54.622Z,2.60
2023-02-18T15:28:48.740Z,3.50
2023-02-18T15:32:32.113Z,3.40
2023-02-18T15:35:35.058Z,2.30
2023-02-18T15:38:41.743Z,5.00
2023-02-18T15:41:45.060Z,2.10
2023-02-18T15:44:51.189Z,4.10
2023-02-18T15:51:15.952Z,2.30
2023-02-18T15:54:22.650Z,1.80
2023-02-18T15:57:29.464Z,3.70
2023-02-18T16:00:39.473Z,3.30
2023-02-18T16:03:46.978Z,4.70
2023-02-18T16:06:52.650Z,5.00
2023-02-18T16:10:21.591Z,2.20
2023-02-18T16:13:26.817Z,3.20
2023-02-18T16:16:33.640Z,3.30
2023-02-18T16:20:05.133Z,3.90
2023-02-18T16:23:14.461Z,3.70
2023-02-18T16:26:27.666Z,3.40
2023-02-18T16:29:41.332Z,3.70
2023-02-18T16:32:44.876Z,2.60
2023-02-18T16:35:50.417Z,3.70
2023-02-18T16:38:53.949Z,5.10
2023-02-18T16:41:56.950Z,4.60
2023-02-18T16:44:59.859Z,4.20
2023-02-18T16:48:05.002Z,3.90
2023-02-18T16:51:13.969Z,5.20
2023-02-18T16:54:17.474Z,6.00
2023-02-18T16:57:21.356Z,6.00
2023-02-18T17:00:24.799Z,4.70
2023-02-18T17:03:28.022Z,5.50
2023-02-18T17:06:31.275Z,8.20
2023-02-18T17:09:34.087Z,5.30
2023-02-18T17:12:42.418Z,8.50
2023-02-18T17:15:47.937Z,10.30
2023-02-18T17:18:51.009Z,7.40
2023-02-18T17:22:14.318Z,7.30
2023-02-18T17:25:24.842Z,7.60
2023-02-18T17:28:27.852Z,7.90
2023-02-18T17:31:37.814Z,7.40
2023-02-18T17:34:41.241Z,7.00
2023-02-18T17:37:44.400Z,5.50
2023-02-18T17:40:50.082Z,6.50
2023-02-18T17:43:53.244Z,4.40
2023-02-18T17:46:56.259Z,5.90
2023-02-18T17:49:59.258Z,7.70
2023-02-18T17:53:02.883Z,5.50
2023-02-18T17:56:05.945Z,3.90
2023-02-18T17:59:09.150Z,4.60
2023-02-18T18:02:27.952Z,3.60
2023-02-18T18:05:33.176Z,4.30
2023-02-18T18:08:36.023Z,4.80
2023-02-18T18:11:39.107Z,4.00
2023-02-18T18:14:41.978Z,4.60
2023-02-18T18:17:44.872Z,6.30
2023-02-18T18:20:52.244Z,5.00
2023-02-18T18:23:55.093Z,5.50
2023-02-18T18:26:57.954Z,4.00
2023-02-18T18:30:00.840Z,4.90
2023-02-18T18:33:06.963Z,4.30
2023-02-18T18:36:10.101Z,5.00
2023-02-18T18:39:13.201Z,5.50
2023-02-18T18:42:16.678Z,5.00
2023-02-18T18:45:27.673Z,4.70
2023-02-18T18:48:30.577Z,4.80
2023-02-18T18:51:33.667Z,3.50
2023-02-18T18:54:36.568Z,4.70
2023-02-18T18:57:39.634Z,4.10
2023-02-18T19:00:43.792Z,4.10
2023-02-18T19:03:48.509Z,4.40
2023-02-18T19:06:51.404Z,3.50
2023-02-18T19:09:54.413Z,3.80
2023-02-18T19:13:13.081Z,3.90
2023-02-18T19:16:20.412Z,3.00
2023-02-18T19:19:24.863Z,2.90
2023-02-18T19:22:27.858Z,2.90
2023-02-18T19:25:31.650Z,3.20
2023-02-18T19:28:34.759Z,3.40
2023-02-18T19:31:37.666Z,5.30
2023-02-18T19:34:40.671Z,4.00
2023-02-18T19:37:43.512Z,4.20
2023-02-18T19:40:47.186Z,4.00
2023-02-18T19:43:50.005Z,4.80
2023-02-18T19:46:55.192Z,3.20
2023-02-18T19:49:59.911Z,4.50
2023-02-18T19:53:02.815Z,3.70
2023-02-18T19:56:07.561Z,3.50
2023-02-18T19:59:10.522Z,3.30
2023-02-18T20:02:20.304Z,3.20
2023-02-18T20:05:23.734Z,2.40
2023-02-18T20:08:26.774Z,4.20
2023-02-18T20:11:32.699Z,2.80
2023-02-18T20:14:37.253Z,2.50
2023-02-18T20:18:41.284Z,4.00
2023-02-18T20:22:55.068Z,2.40
2023-02-18T20:26:21.939Z,2.30
2023-02-18T20:29:25.854Z,2.20
2023-02-18T20:32:28.864Z,2.90
2023-02-18T20:35:31.958Z,2.50
2023-02-18T20:38:35.703Z,2.70
2023-02-18T20:41:39.510Z,2.00
2023-02-18T20:44:42.478Z,2.70
2023-02-18T20:47:45.637Z,3.20
2023-02-18T20:50:48.562Z,3.20
2023-02-18T20:53:51.699Z,2.70
2023-02-18T20:56:54.702Z,2.70
2023-02-18T20:59:58.440Z,3.40
2023-02-18T21:03:01.313Z,2.20
2023-02-18T21:06:07.540Z,2.50
2023-02-18T21:12:13.142Z,2.10
2023-02-18T21:15:16.077Z,1.80
2023-02-18T21:18:19.214Z,2.70
2023-02-18T21:21:23.823Z,2.40
2023-02-18T21:24:27.567Z,2.00
2023-02-18T21:27:30.487Z,2.00
2023-02-18T21:30:42.778Z,2.00
2023-02-18T21:33:46.225Z,1.40
2023-02-18T21:36:49.096Z,1.60
2023-02-18T21:39:51.979Z,1.70
2023-02-18T21:42:54.867Z,1.70
2023-02-18T21:46:16.037Z,1.80
2023-02-18T21:49:18.853Z,1.80
2023-02-18T21:52:21.684Z,1.90
2023-02-18T21:55:26.173Z,1.70
2023-02-18T21:58:29.174Z,1.80
2023-02-18T22:01:32.217Z,1.20
2023-02-18T22:04:36.921Z,1.80
2023-02-18T22:07:39.848Z,1.20
2023-02-18T22:10:42.791Z,1.70
2023-02-18T22:13:45.819Z,0.90
2023-02-18T22:16:49.185Z,1.30
2023-02-18T22:19:52.172Z,1.20
2023-02-18T22:22:54.995Z,1.00
2023-02-18T22:25:57.887Z,1.50
2023-02-18T22:29:00.929Z,1.80
2023-02-18T22:32:04.251Z,1.60
2023-02-18T22:35:07.668Z,1.50
2023-02-18T22:46:08.638Z,1.50
2023-02-18T22:49:10.819Z,1.80
2023-02-18T22:52:12.306Z,1.60
2023-02-18T22:55:13.900Z,1.70
2023-02-18T22:58:15.334Z,1.90
2023-02-18T23:01:28.319Z,1.80
2023-02-18T23:04:29.949Z,2.00
2023-02-18T23:07:31.505Z,1.70
2023-02-18T23:10:32.998Z,2.50
2023-02-18T23:13:35.179Z,1.80
2023-02-18T23:16:56.954Z,1.40
2023-02-18T23:19:58.453Z,2.20
2023-02-18T23:22:59.922Z,1.70
2023-02-18T23:26:01.427Z,1.40
2023-02-18T23:29:05.382Z,2.20
2023-02-18T23:32:07.725Z,1.50
2023-02-18T23:35:09.421Z,1.30
2023-02-18T23:38:10.819Z,1.90
2023-02-18T23:41:12.402Z,1.40
2023-02-18T23:44:16.942Z,2.20
2023-02-18T23:47:18.578Z,1.30
2023-02-18T23:50:20.100Z,1.50
2023-02-18T23:53:25.345Z,1.50
2023-02-18T23:56:27.721Z,3.00
2023-02-18T23:59:29.147Z,1.20
